Current Conditions
Clear
Conditions



Pressure
30.14 (inHG) - 1020.62 (mb)
Visibility

9.9 (miles) - 16.0 (km)
Temperature
43  °F
Temperature
36  °F
Dewpoint
76  %
 Humidity
Wind Speed
8  mph
7  kts
13  km/h
3.6  m/s
Wind Direction
N
45°
E
90°
135°
S
180°
225°
W
270°
315°
 30°

North North
East
Airport Data
KBLV
Scott AFB/Midamerica Airport
Metar :KBLV 040956Z AUTO 03007KT 10SM CLR 06/02 A3014 RMK AO2 SLP209 T00580015 $
Sat 4th December 03:56 am
Raw Metar Info
Raw METAR is the most common format in the world for the transmission of observational weather data. It is highly standardized through the International Civil Aviation Organization (ICAO), which allows it to be understood throughout most of the world.
API Info
Data Provided by
https://www.checkwx.com/weather/KBLV

Aviation Weather providing METAR, TAF, AIRMET, SIGMET and OUTLOOK Weather Reports
© Info
CSS/SVG/PHP scripts were developed by weather34.com for use in the weather34 template © 2015-2021

Guide Info provided by Metar-Wikipedia